Hunt Field
KLND : now visible

Airfield :











YOU CAN JOIN US ON...

 
LOGIN :

Register | Disclaimer

   EN    FR    IT 

 









Legend :    VFR   Marginal VFR   IFR   Intensive IFR   Very Intensive IFR
Visi :
Ceiling :
>= 8 km
>= 3000ft
5 to 8 km
1000 to 3000 ft
1500m to 5 km
500 to 1000 ft
800 to 1500m
200 to 500 ft
< 800m
< 200 ft
Symbols :   Thunderstorms  Fog  Heavy snow  Heavy precipitations  Wind > 20 kt






- Airport Elevation : 5586 ft


KLND - Hunt Field

CURRENT METAR :
  • 260453Z AUTO 20019G28KT 10SM CLR 16/01 A2951 RMK AO2 PK WND 21032/0356 SLP935 T01560006

EXPIRED METARs :
  • 260353Z AUTO 20019G30KT 10SM CLR 16/M01 A2956 RMK AO2 PK WND 21030/0349 SLP953 T01561006
  • 260253Z AUTO 20021G28KT 10SM CLR 16/M01 A2957 RMK AO2 PK WND 20028/0251 SLP972 T01561006 58001

TAF KLND
Valid from the 26 at 00:00 until the 27 at 00:00 UTC


252335Z 2600/2624 20018G28KT P6SM FEW080
FM260400 21014KT P6SM SCT070 BKN110 WS020/22040KT
FM261000 30009KT P6SM VCSH BKN060
FM261700 04015KT P6SM VCSH SCT020 OVC070
KZLC FIR / North America



MET'MAP, your aeronautical weather chart ! - Copyright ORBIFLY December 2007 - Disclaimer

ORBIFLY MET'MAP TEAM :

Programming & Development : Alexandra Zaïnal
Concept & original design : Baudouin d'Aumeries
Assistance for programming : Marc-Olivier Méhu
Technical & hardware support : Manuel Goepfert

Contact : metmap@orbifly.com




SOURCES & CREDITS :

   NOAA       Earth
Advisory